< VanCam Weather - Nearby METAR Reports

Nearby METAR Reports

 

KPDX - Portland Intl
Distance from station: SW 8.9mi, 14.3km
Updated: 02/20/2018 10:53am
Light snow, Overcast
Light snow, Overcast
 Wind from ESE
Wind: ESE 13 mph , 20 km/h
Temperature: 32°F , 0°C
Wind Chill: 22°F , -6°C
Dew Point: 30°F , -1°C
Humidity: 93%
Barometer: 30.20 inHg , 1022.7 hPa
Summary: Light Snow
Clouds: Overcast
Visibility: 1 1/2 miles , 2.4 km
Cloud details: Overcast 2000 ft
2018/02/20 18:53 KPDX 201853Z 11011KT 1 1/2SM R10R/5500VP6000FT -SN OVC020 00/M01 A3020 RMK AO2 SLP226 P0002 T00001011
KVUO - Vancouver
Distance from station: W 10.7mi, 17.2km
Updated: 02/20/2018 11:01am
Light snow, Mist, Overcast
Light snow, Mist, Overcast
 Wind from ESE
Wind: ESE 12 mph , 19 km/h
Temperature: 32°F , 0°C
Wind Chill: 23°F , -5°C
Dew Point: 32°F , 0°C
Humidity: 100%
Barometer: 30.20 inHg , 1022.7 hPa
Summary: Light snow, Mist
Clouds: Overcast
Visibility: 1 1/2 miles , 2.4 km
Cloud details: Few Clouds 600 ft
Overcast 1700 ft
2018/02/20 19:01 KVUO 201901Z AUTO 12010KT 1 1/2SM -SN BR FEW006 OVC017 00/00 A3020 RMK AO2 P0000 T00000000
 
KTTD - Troutdale
Distance from station: SSE 8.1mi, 13km
Updated: 02/20/2018 11:00am
Light snow, Mist, Overcast
Light snow, Mist, Overcast
 Wind from E
Wind: E 16 mph , 26 km/h
Temperature: 32°F , 0°C
Wind Chill: 21°F , -6°C
Dew Point: 28°F , -2°C
Humidity: 87%
Barometer: 30.21 inHg , 1023 hPa
Summary: Light snow, Mist
Clouds: Overcast
Visibility: 1 mile , 2 km
Cloud details: Overcast 2300 ft
2018/02/20 19:00 KTTD 201900Z 09014KT 1SM -SN BR OVC023 00/M02 A3021 RMK AO2 P0000 T00001022
KSPB - Scappoose
Distance from station: WSW 21.6mi, 34.8km
Updated: 02/20/2018 10:53am
Snow, Fog, Overcast
Snow, Fog, Overcast
 Wind from SE
Wind: SE 7 mph , 11 km/h
Temperature: 32°F , 0°C
Wind Chill: 25°F , -4°C
Dew Point: 30°F , -1°C
Humidity: 93%
Barometer: 30.19 inHg , 1022.4 hPa
Summary: Snow, Fog
Clouds: Overcast
Visibility: 1/2 mile , 0.8 km
Cloud details: Overcast 400 ft
2018/02/20 18:53 KSPB 201853Z AUTO 14006KT 1/2SM SN FG OVC004 00/M01 A3019 RMK AO2 SLP223 P0001 T00001006
 
KHIO - Hillsboro
Distance from station: SW 25.8mi, 41.5km
Updated: 02/20/2018 10:53am
Snow, Overcast
Snow, Overcast
 Wind from SE
Wind: SE 6 mph , 9 km/h
Temperature: 34°F , 1°C
Wind Chill: 29°F , -2°C
Dew Point: 30°F , -1°C
Humidity: 87%
Barometer: 30.17 inHg , 1021.7 hPa
Summary: Snow
Clouds: Overcast
Visibility: 1/4 mile , 0.4 km
Cloud details: Overcast 500 ft
2018/02/20 18:53 KHIO 201853Z 13005KT 1/4SM R13R/4000FT SN OVC005 01/M01 A3017 RMK AO2 SLP221 CIG 005V010 P0002 T00061006
KDLS - The Dalles
Distance from station: E 61.4mi, 98.8km
Updated: 02/20/2018 10:53am
Overcast
Overcast
 Wind from SW
Wind: SW 3 mph , 6 km/h
Temperature: 28°F , -2°C
Dew Point: 19°F , -7°C
Humidity: 69%
Barometer: 30.26 inHg , 1024.7 hPa
Clouds: Overcast
Visibility: 10 miles , 16 km
Cloud details: Overcast 6500 ft
2018/02/20 18:53 KDLS 201853Z AUTO 22003KT 10SM OVC065 M02/M07 A3026 RMK AO2 SLP249 T10171067
 
KAST - Astoria
Distance from station: WNW 77.2mi, 124.2km
Updated: 02/20/2018 10:55am
Light snow, Mist, Overcast
Light snow, Mist, Overcast
 Wind from ENE
Wind: ENE 8 mph , 13 km/h
Temperature: 36°F , 2°C
Wind Chill: 30°F , -1°C
Dew Point: 34°F , 1°C
Humidity: 93%
Barometer: 30.13 inHg , 1020.3 hPa
Summary: Light snow, Mist
Clouds: Overcast
Visibility: 4 miles , 6 km
Cloud details: Few Clouds 600 ft
Overcast 1400 ft
2018/02/20 18:55 KAST 201855Z AUTO 07007KT 4SM -SN BR FEW006 OVC014 02/01 A3013 RMK AO2 SLP202 P0002 T00170006
KONP - Newport
Distance from station: SW 106mi, 170.4km
Updated: 02/20/2018 10:55am
Overcast
Overcast
 Wind from SSE
Wind: SSE 9 mph , 15 km/h
Temperature: 39°F , 4°C
Wind Chill: 33°F , 1°C
Dew Point: 34°F , 1°C
Humidity: 81%
Barometer: 30.17 inHg , 1021.7 hPa
Clouds: Overcast
Visibility: 10 miles , 16 km
Cloud details: Mostly cloudy 1800 ft
Overcast 2600 ft
2018/02/20 18:55 KONP 201855Z AUTO 15008KT 10SM BKN018 OVC026 04/01 A3017 RMK AO2